createdAt,value
2022-10-25T00:02:18.983Z,94887
2022-10-25T00:05:44.093Z,94887
2022-10-25T00:09:09.281Z,94890
2022-10-25T00:12:34.537Z,94882
2022-10-25T00:15:59.650Z,94882
2022-10-25T00:19:24.850Z,94878
2022-10-25T00:22:50.032Z,94868
2022-10-25T00:26:15.233Z,94871
2022-10-25T00:29:40.434Z,94870
2022-10-25T00:33:05.604Z,94867
2022-10-25T00:36:30.776Z,94877
2022-10-25T00:39:55.930Z,94884
2022-10-25T00:43:21.115Z,94882
2022-10-25T00:46:46.323Z,94880
2022-10-25T00:50:11.474Z,94896
2022-10-25T00:53:36.666Z,94895
2022-10-25T00:57:01.853Z,94897
2022-10-25T01:00:27.059Z,94894
2022-10-25T01:03:52.286Z,94898
2022-10-25T01:07:17.469Z,94901
2022-10-25T01:10:42.662Z,94898
2022-10-25T01:14:07.844Z,94899
2022-10-25T01:17:33.025Z,94894
2022-10-25T01:20:58.240Z,94887
2022-10-25T01:24:23.426Z,94877
2022-10-25T01:27:48.631Z,94880
2022-10-25T01:31:13.800Z,94872
2022-10-25T01:34:39.003Z,94875
2022-10-25T01:38:04.185Z,94876
2022-10-25T01:41:29.355Z,94863
2022-10-25T01:44:54.605Z,94871
2022-10-25T01:48:19.776Z,94877
2022-10-25T01:51:44.963Z,94890
2022-10-25T01:55:10.181Z,94896
2022-10-25T01:58:35.345Z,94892
2022-10-25T02:02:00.520Z,94892
2022-10-25T02:05:25.678Z,94895
2022-10-25T02:08:50.826Z,94898
2022-10-25T02:12:16.032Z,94902
2022-10-25T02:15:41.215Z,94902
2022-10-25T02:19:06.391Z,94904
2022-10-25T02:22:31.550Z,94900
2022-10-25T02:25:56.726Z,94899
2022-10-25T02:29:21.953Z,94898
2022-10-25T02:32:47.092Z,94902
2022-10-25T02:36:12.277Z,94901
2022-10-25T02:39:37.444Z,94904
2022-10-25T02:43:02.606Z,94901
2022-10-25T02:46:27.824Z,94906
2022-10-25T02:49:52.989Z,94904
2022-10-25T02:53:18.158Z,94903
2022-10-25T02:56:43.336Z,94908
2022-10-25T03:00:08.552Z,94906
2022-10-25T03:03:33.709Z,94911
2022-10-25T03:06:58.832Z,94904
2022-10-25T03:10:24.025Z,94915
2022-10-25T03:13:49.213Z,94909
2022-10-25T03:17:14.364Z,94909
2022-10-25T03:20:39.557Z,94913
2022-10-25T03:24:04.694Z,94916
2022-10-25T03:27:29.863Z,94919
2022-10-25T03:30:55.061Z,94920
2022-10-25T03:34:20.258Z,94928
2022-10-25T03:37:45.627Z,94932
2022-10-25T03:41:10.578Z,94930
2022-10-25T03:44:35.755Z,94936
2022-10-25T03:48:00.922Z,94936
2022-10-25T03:51:26.072Z,94937
2022-10-25T03:54:51.287Z,94937
2022-10-25T03:58:16.438Z,94948
2022-10-25T04:01:41.766Z,94954
2022-10-25T04:05:06.836Z,94956
2022-10-25T04:08:31.993Z,94961
2022-10-25T04:11:57.168Z,94966
2022-10-25T04:15:22.313Z,94969
2022-10-25T04:18:47.812Z,94963
2022-10-25T04:22:12.997Z,94969
2022-10-25T04:25:38.170Z,94970
2022-10-25T04:29:03.389Z,94963
2022-10-25T04:32:28.542Z,94954
2022-10-25T04:35:53.709Z,94964
2022-10-25T04:39:18.885Z,94965
2022-10-25T04:42:44.241Z,94961
2022-10-25T04:46:09.283Z,94963
2022-10-25T04:49:34.447Z,94965
2022-10-25T04:52:59.647Z,94970
2022-10-25T04:56:24.886Z,94967
2022-10-25T04:59:50.067Z,94962
2022-10-25T05:03:15.316Z,94962
2022-10-25T05:06:40.463Z,94957
2022-10-25T05:10:05.630Z,94957
2022-10-25T05:13:30.815Z,94961
2022-10-25T05:16:55.996Z,94964
2022-10-25T05:20:21.180Z,94969
2022-10-25T05:23:46.369Z,94966
2022-10-25T05:27:11.537Z,94970
2022-10-25T05:30:36.705Z,94973
2022-10-25T05:34:01.934Z,94979
2022-10-25T05:37:27.135Z,94985
2022-10-25T05:40:52.332Z,94985
2022-10-25T05:44:17.493Z,94994
2022-10-25T05:47:42.733Z,94997
2022-10-25T05:51:14.114Z,95007
2022-10-25T05:54:33.147Z,95008
2022-10-25T05:57:58.282Z,95009
2022-10-25T06:01:23.591Z,95019
2022-10-25T06:04:51.542Z,95016
2022-10-25T06:08:13.854Z,95021
2022-10-25T06:11:39.082Z,95022
2022-10-25T06:15:04.230Z,95026
2022-10-25T06:18:29.416Z,95033
2022-10-25T06:21:54.598Z,95030
2022-10-25T06:25:19.798Z,95027
2022-10-25T06:28:44.990Z,95038
2022-10-25T06:32:10.172Z,95042
2022-10-25T06:35:35.428Z,95037
2022-10-25T06:39:03.680Z,95035
2022-10-25T06:42:26.311Z,95042
2022-10-25T06:45:51.518Z,95053
2022-10-25T06:49:16.962Z,95063
2022-10-25T06:52:42.313Z,95067
2022-10-25T06:56:09.314Z,95075
2022-10-25T06:59:33.410Z,95072
2022-10-25T07:02:58.988Z,95070
2022-10-25T07:06:24.214Z,95075
2022-10-25T07:09:49.336Z,95080
2022-10-25T07:13:14.926Z,95089
2022-10-25T07:16:40.117Z,95096
2022-10-25T07:20:05.312Z,95098
2022-10-25T07:23:30.442Z,95102
2022-10-25T07:26:55.708Z,95103
2022-10-25T07:30:20.900Z,95107
2022-10-25T07:33:46.073Z,95101
2022-10-25T07:37:11.289Z,95105
2022-10-25T07:40:36.442Z,95112
2022-10-25T07:44:01.617Z,95114
2022-10-25T07:47:26.791Z,95117
2022-10-25T07:50:51.998Z,95114
2022-10-25T07:54:17.199Z,95122
2022-10-25T07:57:42.380Z,95122
2022-10-25T08:01:07.646Z,95126
2022-10-25T08:04:32.905Z,95130
2022-10-25T08:07:58.032Z,95127
2022-10-25T08:11:23.263Z,95137
2022-10-25T08:14:49.760Z,95137
2022-10-25T08:18:13.491Z,95138
2022-10-25T08:21:38.697Z,95146
2022-10-25T08:25:03.877Z,95139
2022-10-25T08:28:29.100Z,95125
2022-10-25T08:31:54.260Z,95132
2022-10-25T08:35:19.448Z,95129
2022-10-25T08:38:44.606Z,95129
2022-10-25T08:42:09.783Z,95136
2022-10-25T08:45:34.963Z,95135
2022-10-25T08:49:00.138Z,95127
2022-10-25T08:52:25.310Z,95125
2022-10-25T08:56:05.347Z,95116
2022-10-25T08:59:15.728Z,95127
2022-10-25T09:02:40.942Z,95123
2022-10-25T09:06:06.107Z,95130
2022-10-25T09:09:31.296Z,95121
2022-10-25T09:12:56.487Z,95125
2022-10-25T09:16:21.645Z,95130
2022-10-25T09:19:46.846Z,95142
2022-10-25T09:23:12.034Z,95142
2022-10-25T09:26:37.171Z,95154
2022-10-25T09:30:03.775Z,95155
2022-10-25T09:33:27.545Z,95165
2022-10-25T09:36:52.736Z,95170
2022-10-25T09:40:17.927Z,95173
2022-10-25T09:43:43.094Z,95177
2022-10-25T09:47:08.269Z,95176
2022-10-25T09:50:33.492Z,95179
2022-10-25T09:53:58.682Z,95177
2022-10-25T09:57:23.871Z,95181
2022-10-25T10:00:48.989Z,95188
2022-10-25T10:04:14.159Z,95191
2022-10-25T10:07:39.326Z,95189
2022-10-25T10:11:04.509Z,95190
2022-10-25T10:14:29.650Z,95192
2022-10-25T10:17:54.825Z,95192
2022-10-25T10:21:19.988Z,95193
2022-10-25T10:24:45.157Z,95198
2022-10-25T10:28:10.367Z,95191
2022-10-25T10:31:35.484Z,95191
2022-10-25T10:35:00.634Z,95192
2022-10-25T10:38:25.789Z,95193
2022-10-25T10:42:17.597Z,95188
2022-10-25T10:45:44.462Z,95193
2022-10-25T10:49:09.600Z,95185
2022-10-25T10:52:34.754Z,95185
2022-10-25T10:55:59.924Z,95190
2022-10-25T10:59:25.088Z,95186
2022-10-25T11:02:50.678Z,95189
2022-10-25T11:06:15.426Z,95195
2022-10-25T11:09:40.608Z,95193
2022-10-25T11:13:05.795Z,95184
2022-10-25T11:16:30.960Z,95187
2022-10-25T11:19:56.262Z,95189
2022-10-25T11:23:21.353Z,95183
2022-10-25T11:26:46.499Z,95184
2022-10-25T11:30:11.659Z,95188
2022-10-25T11:33:36.841Z,95185
2022-10-25T11:37:02.134Z,95187
2022-10-25T11:40:27.189Z,95189
2022-10-25T11:43:52.365Z,95192
2022-10-25T11:47:17.530Z,95182
2022-10-25T11:50:42.690Z,95191
2022-10-25T11:54:07.982Z,95187
2022-10-25T11:57:33.041Z,95178
2022-10-25T12:00:58.213Z,95183
2022-10-25T12:04:25.531Z,95183
2022-10-25T12:07:48.648Z,95182
2022-10-25T12:11:15.124Z,95180
2022-10-25T12:14:39.058Z,95178
2022-10-25T12:18:04.237Z,95184
2022-10-25T12:21:29.415Z,95175
2022-10-25T12:24:54.596Z,95180
2022-10-25T12:28:19.882Z,95176
2022-10-25T12:31:45.008Z,95177
2022-10-25T12:35:10.162Z,95165
2022-10-25T12:38:35.342Z,95166
2022-10-25T12:42:00.491Z,95160
2022-10-25T12:45:25.760Z,95157
2022-10-25T12:48:50.787Z,95166
2022-10-25T12:52:16.021Z,95171
2022-10-25T12:55:41.311Z,95166
2022-10-25T12:59:06.567Z,95159
2022-10-25T13:02:31.937Z,95164
2022-10-25T13:05:57.096Z,95169
2022-10-25T13:09:26.923Z,95168
2022-10-25T13:12:47.924Z,95172
2022-10-25T13:16:12.921Z,95166
2022-10-25T13:19:54.819Z,95163
2022-10-25T13:23:03.484Z,95170
2022-10-25T13:26:28.733Z,95168
2022-10-25T13:29:54.006Z,95171
2022-10-25T13:33:19.261Z,95175
2022-10-25T13:36:44.600Z,95182
2022-10-25T13:40:09.762Z,95180
2022-10-25T13:43:34.938Z,95177
2022-10-25T13:47:00.147Z,95181
2022-10-25T13:50:25.422Z,95173
2022-10-25T13:53:50.712Z,95165
2022-10-25T13:57:15.975Z,95165
2022-10-25T14:00:41.256Z,95162
2022-10-25T14:04:06.471Z,95162
2022-10-25T14:07:31.742Z,95162
2022-10-25T14:10:57.025Z,95166
2022-10-25T14:14:22.210Z,95164
2022-10-25T14:17:47.485Z,95174
2022-10-25T14:21:12.749Z,95177
2022-10-25T14:24:38.034Z,95177
2022-10-25T14:28:03.322Z,95171
2022-10-25T15:06:08.358Z,95165
2022-10-25T15:09:48.985Z,95183
2022-10-25T15:12:58.930Z,95177
2022-10-25T15:16:24.194Z,95165
2022-10-25T15:19:49.460Z,95169
2022-10-25T15:23:14.761Z,95166
2022-10-25T15:26:40.094Z,95171
2022-10-25T15:30:05.399Z,95174
2022-10-25T15:33:30.639Z,95172
2022-10-25T15:36:55.862Z,95172
2022-10-25T15:40:21.129Z,95173
2022-10-25T15:43:46.372Z,95177
2022-10-25T15:47:11.645Z,95181
2022-10-25T15:50:36.956Z,95185
2022-10-25T15:54:02.239Z,95179
2022-10-25T15:57:27.515Z,95185
2022-10-25T16:00:52.797Z,95179
2022-10-25T16:04:18.009Z,95182
2022-10-25T16:07:43.272Z,95182
2022-10-25T16:11:08.529Z,95176
2022-10-25T16:14:33.754Z,95175
2022-10-25T16:17:58.897Z,95182
2022-10-25T16:21:24.051Z,95187
2022-10-25T16:24:49.206Z,95184
2022-10-25T16:28:14.452Z,95186
2022-10-25T16:31:39.631Z,95182
2022-10-25T16:35:04.772Z,95181
2022-10-25T16:38:29.968Z,95188
2022-10-25T16:41:55.135Z,95184
2022-10-25T16:45:20.279Z,95183
2022-10-25T16:48:45.487Z,95186
2022-10-25T16:52:10.654Z,95186
2022-10-25T16:55:35.822Z,95188
2022-10-25T16:59:00.981Z,95187
2022-10-25T17:02:26.162Z,95192
2022-10-25T17:05:51.315Z,95186
2022-10-25T17:09:16.430Z,95196
2022-10-25T17:12:41.580Z,95191
2022-10-25T17:16:06.739Z,95194
2022-10-25T17:19:31.961Z,95190
2022-10-25T17:22:57.136Z,95190
2022-10-25T17:26:22.265Z,95191
2022-10-25T17:29:47.422Z,95193
2022-10-25T17:33:12.566Z,95194
2022-10-25T17:36:37.728Z,95200
2022-10-25T17:40:02.918Z,95201
2022-10-25T17:43:28.042Z,95202
2022-10-25T17:46:53.227Z,95195
2022-10-25T17:50:18.384Z,95205
2022-10-25T17:53:43.535Z,95204
2022-10-25T17:57:08.714Z,95211
2022-10-25T18:00:33.849Z,95212
2022-10-25T18:03:58.993Z,95217
2022-10-25T18:07:24.227Z,95207
2022-10-25T18:10:49.378Z,95212
2022-10-25T18:14:14.558Z,95212
2022-10-25T18:17:39.685Z,95205
2022-10-25T18:21:04.873Z,95217
2022-10-25T18:24:30.046Z,95218
2022-10-25T18:27:55.197Z,95213
2022-10-25T18:31:20.413Z,95214
2022-10-25T18:34:45.523Z,95212
2022-10-25T18:38:12.804Z,95213
2022-10-25T18:41:35.841Z,95216
2022-10-25T18:45:01.015Z,95212
2022-10-25T18:48:26.189Z,95214
2022-10-25T18:51:51.335Z,95213
2022-10-25T18:58:41.689Z,95227
2022-10-25T19:02:07.007Z,95224
2022-10-25T19:05:32.034Z,95218
2022-10-25T19:08:57.200Z,95222
2022-10-25T19:12:22.368Z,95210
2022-10-25T19:15:47.551Z,95206
2022-10-25T19:19:12.758Z,95204
2022-10-25T19:22:41.217Z,95205
2022-10-25T19:26:06.399Z,95205
2022-10-25T19:29:31.608Z,95205
2022-10-25T19:32:56.867Z,95209
2022-10-25T19:36:22.080Z,95203
2022-10-25T19:39:47.309Z,95202
2022-10-25T19:43:12.476Z,95201
2022-10-25T19:46:37.697Z,95205
2022-10-25T19:50:02.895Z,95205
2022-10-25T19:53:28.129Z,95202
2022-10-25T19:56:53.333Z,95199
2022-10-25T20:00:18.500Z,95197
2022-10-25T20:03:43.709Z,95194
2022-10-25T20:07:08.905Z,95195
2022-10-25T20:10:34.101Z,95189
2022-10-25T20:13:59.351Z,95194
2022-10-25T20:17:24.524Z,95192
2022-10-25T20:20:51.734Z,95190
2022-10-25T20:24:14.912Z,95187
2022-10-25T20:27:40.120Z,95192
2022-10-25T20:31:05.317Z,95191
2022-10-25T20:34:30.480Z,95190
2022-10-25T20:37:55.669Z,95197
2022-10-25T20:41:20.880Z,95197
2022-10-25T20:44:46.078Z,95199
2022-10-25T20:48:11.281Z,95202
2022-10-25T20:51:36.427Z,95206
2022-10-25T20:55:01.609Z,95205
2022-10-25T20:58:26.810Z,95207
2022-10-25T21:01:52.283Z,95205
2022-10-25T21:05:17.274Z,95205
2022-10-25T21:08:42.410Z,95202
2022-10-25T21:12:07.588Z,95197
2022-10-25T21:15:32.743Z,95196
2022-10-25T21:18:57.894Z,95197
2022-10-25T21:22:23.080Z,95195
2022-10-25T21:25:48.219Z,95198
2022-10-25T21:29:13.369Z,95198
2022-10-25T21:32:38.527Z,95201
2022-10-25T21:36:03.692Z,95193
2022-10-25T21:39:28.874Z,95193
2022-10-25T21:42:54.052Z,95193
2022-10-25T21:46:19.229Z,95205
2022-10-25T21:49:44.378Z,95205
2022-10-25T21:53:09.533Z,95206
2022-10-25T21:56:34.717Z,95202
2022-10-25T21:59:59.845Z,95198
2022-10-25T22:03:25.599Z,95197
2022-10-25T22:06:50.179Z,95196
2022-10-25T22:10:15.320Z,95192
2022-10-25T22:13:40.506Z,95194
2022-10-25T22:17:05.640Z,95200
2022-10-25T22:20:30.802Z,95198
2022-10-25T22:23:55.960Z,95198
2022-10-25T22:27:21.119Z,95198
2022-10-25T22:30:46.338Z,95198
2022-10-25T22:34:11.503Z,95204
2022-10-25T22:37:36.669Z,95203
2022-10-25T22:41:01.816Z,95196
2022-10-25T22:44:26.988Z,95197
2022-10-25T22:47:52.190Z,95193
2022-10-25T22:51:17.320Z,95190
2022-10-25T22:54:42.526Z,95200
2022-10-25T22:58:07.706Z,95198
2022-10-25T23:01:32.849Z,95195
2022-10-25T23:04:58.020Z,95206
2022-10-25T23:08:23.169Z,95206
2022-10-25T23:11:48.321Z,95208
2022-10-25T23:15:13.478Z,95207
2022-10-25T23:18:38.641Z,95198
2022-10-25T23:22:03.819Z,95198
2022-10-25T23:25:28.986Z,95191
2022-10-25T23:28:54.158Z,95188
2022-10-25T23:32:19.317Z,95190
2022-10-25T23:35:44.503Z,95187
2022-10-25T23:39:09.649Z,95194
2022-10-25T23:42:34.830Z,95192
2022-10-25T23:45:59.956Z,95188
2022-10-25T23:49:25.116Z,95187
2022-10-25T23:52:50.482Z,95188
2022-10-25T23:56:15.483Z,95175
2022-10-25T23:59:40.599Z,95173
